Huvudsida
METAR-TAF:

METAR-TAF

Flygplatser :

Esbjergs flygplats

Esbjerg, Danmark

latitud: 55-32N, longitud: 008-34E, höjd: 30 m

Aktuellt väderrapport

Denna rapport gjordes för 13 minuter sedan, klockan 19:20 UTC
Vind 10 kt från nordväst
Temperatur 14°C
Fuktighet 82%
Tryck 1022 hPa
Sikt 10 km eller mer

METAR: EKEB 251920Z AUTO 32010KT 9999NDV BKN011/// 14/11 Q1022

Tid: 21:33 (19:33 UTC)

Väderprognos

Denna rapport gjordes för 2 timmar och 10 minuter sedan, klockan 17:23 UTC
Prognos gäller från 25 kl. 18 UTC till 25 kl. 22 UTC
Vind 14 kt från nordväst
Sikt 10 km eller mer
Brutna moln på en höjd av 900 ft
Temporärt
från 25 kl. 18 UTC till 25 kl. 22 UTC
Få moln på en höjd av 1500 ft

TAF: EKEB 251723Z 2518/2522 32014KT 9999 BKN009 TEMPO 2518/2522 FEW015

Aktuella väderrapporter och prognoser från 4000 flygplatser (METAR- och TAF-rapporter).

De tillgängliga stationerna syns som gula och röda prickar på kartan.

För musen över prickarna för att se namnen på stationerna.

Klicka sedan för att få väderrapporter och prognoser.

För att ändra kartan: Klicka på de gröna knapparna med ett svart kors på för att zooma in; den gröna knappen med ett streck på för att zooma ut; eller på de gröna pilarna för angränsande kartor.


METAR-TAF: